Terminal Aerodrome Forecast
Issued by NWS Cleveland, OH

Home | Current Version | Previous Version | Graphics & Text | Print | Product List | Glossary On
Versions: 1 2 3 4 5 6 7 8 9 10 11 12 13 14 15 16
000
FTUS41 KCLE 082338
TAFCAK
TAF
KCAK 082338Z 0900/0924 22007KT P6SM SCT250
     FM091500 20010KT P6SM BKN120
     FM092100 23010KT 4SM -SN SCT015 OVC025
     FM092300 24010KT 4SM -SHSN BKN015 OVC025=

USA.gov is the U.S. government's official web portal to all federal, state and local government web resources and services.